aviador You're here:

KAWM Decoded Metar

W MEMPHIS MUNI in AR, USA
Report Time2018-05-23 15:53:00
UTC Time2018-05-23 16:35:57
Flight Rules vfr VFR
Wind070° at 06 kt
W.Decomp.*RWY 35: 1.1 kt HW 5.9 kt RCW
W.Rank070° ranks 22
Current wind is below 070° avg. (6.2)
Visibility9999 m
Phenomena:N/A
Clouds:N/A
Expected CloudBase > 2,800 ft AGL from Temp-Dew spread
CeilingNone
Temp29°C (ISA +14)
Dew Point22°C (66% RH)
Heat Index32.0°C
QNH1019 hPa
Density Alt2,018 ft
Elevation213 ft
Report Wrong Elevation
Raw Report
KAWM 231553Z AUTO 07006KT 10SM CLR 29/22 A3010 RMK AO2 SLP189
T02940217 $=

Extra information for KAWM:More info

Metar Taf Metar & Taf Last 4 Metars F.Rules Stats Wind Profile Meteogram Temp Stats Airport Information Weather charts Add Link Nearby VenuesMetar ALERT Operation Metar Decoded Social comments

AIRNAV info for KAWM